sensor_id;sensor_type;location;lat;lon;timestamp;temperature;humidity
46029;DHT22;31763;48.180;7.904;2022-08-18T04:24:17;15.80;99.90
46029;DHT22;31763;48.180;7.904;2022-08-18T04:26:46;15.70;99.90
46029;DHT22;31763;48.180;7.904;2022-08-18T04:29:15;15.70;99.90
46029;DHT22;31763;48.180;7.904;2022-08-18T04:31:42;15.60;99.90
46029;DHT22;31763;48.180;7.904;2022-08-18T04:34:09;15.70;99.90
46029;DHT22;31763;48.180;7.904;2022-08-18T04:36:37;15.60;99.90
46029;DHT22;31763;48.180;7.904;2022-08-18T04:39:06;15.70;99.90
46029;DHT22;31763;48.180;7.904;2022-08-18T04:41:34;15.60;99.90
46029;DHT22;31763;48.180;7.904;2022-08-18T04:44:05;15.60;99.90
46029;DHT22;31763;48.180;7.904;2022-08-18T04:46:39;15.60;99.90
46029;DHT22;31763;48.180;7.904;2022-08-18T04:49:07;15.60;99.90
46029;DHT22;31763;48.180;7.904;2022-08-18T04:51:38;15.80;99.90
46029;DHT22;31763;48.180;7.904;2022-08-18T04:54:27;15.80;99.90
46029;DHT22;31763;48.180;7.904;2022-08-18T04:56:54;16.00;99.90
46029;DHT22;31763;48.180;7.904;2022-08-18T04:59:21;15.80;99.90
46029;DHT22;31763;48.180;7.904;2022-08-18T05:01:48;15.70;99.90
46029;DHT22;31763;48.180;7.904;2022-08-18T05:04:15;15.80;99.90
46029;DHT22;31763;48.180;7.904;2022-08-18T05:06:43;15.80;99.90
46029;DHT22;31763;48.180;7.904;2022-08-18T05:09:11;15.90;99.90
46029;DHT22;31763;48.180;7.904;2022-08-18T05:11:42;16.10;99.90
46029;DHT22;31763;48.180;7.904;2022-08-18T05:14:12;16.10;99.90
46029;DHT22;31763;48.180;7.904;2022-08-18T05:16:39;16.10;99.90
46029;DHT22;31763;48.180;7.904;2022-08-18T05:19:15;16.10;99.90
46029;DHT22;31763;48.180;7.904;2022-08-18T05:21:49;16.20;99.90
46029;DHT22;31763;48.180;7.904;2022-08-18T05:24:17;16.20;99.90
46029;DHT22;31763;48.180;7.904;2022-08-18T05:26:44;16.20;99.90
46029;DHT22;31763;48.180;7.904;2022-08-18T05:29:11;16.30;99.90
46029;DHT22;31763;48.180;7.904;2022-08-18T05:31:45;16.30;99.90
46029;DHT22;31763;48.180;7.904;2022-08-18T05:34:13;16.30;99.90
46029;DHT22;31763;48.180;7.904;2022-08-18T05:44:39;16.20;99.90
46029;DHT22;31763;48.180;7.904;2022-08-18T05:47:16;16.20;99.90
46029;DHT22;31763;48.180;7.904;2022-08-18T05:49:54;16.20;99.90
46029;DHT22;31763;48.180;7.904;2022-08-18T05:55:33;16.20;99.90
46029;DHT22;31763;48.180;7.904;2022-08-18T05:58:44;16.30;99.90
46029;DHT22;31763;48.180;7.904;2022-08-18T06:01:26;16.30;99.90
46029;DHT22;31763;48.180;7.904;2022-08-18T06:03:57;16.30;99.90
46029;DHT22;31763;48.180;7.904;2022-08-18T06:06:27;16.40;99.90
46029;DHT22;31763;48.180;7.904;2022-08-18T06:08:57;16.50;99.90
46029;DHT22;31763;48.180;7.904;2022-08-18T06:11:48;16.40;99.90
46029;DHT22;31763;48.180;7.904;2022-08-18T06:14:15;16.30;99.90
46029;DHT22;31763;48.180;7.904;2022-08-18T06:19:36;16.20;99.90
46029;DHT22;31763;48.180;7.904;2022-08-18T06:22:17;16.10;99.90
46029;DHT22;31763;48.180;7.904;2022-08-18T06:25:21;16.10;99.90
46029;DHT22;31763;48.180;7.904;2022-08-18T06:30:43;16.00;99.90
46029;DHT22;31763;48.180;7.904;2022-08-18T06:41:44;16.30;99.90
46029;DHT22;31763;48.180;7.904;2022-08-18T06:44:22;16.40;99.90
46029;DHT22;31763;48.180;7.904;2022-08-18T06:46:55;16.30;99.90
46029;DHT22;31763;48.180;7.904;2022-08-18T06:54:55;15.80;99.90
46029;DHT22;31763;48.180;7.904;2022-08-18T06:57:28;15.80;99.90
46029;DHT22;31763;48.180;7.904;2022-08-18T07:00:07;15.90;99.90
46029;DHT22;31763;48.180;7.904;2022-08-18T07:05:05;16.00;99.90
46029;DHT22;31763;48.180;7.904;2022-08-18T07:07:35;16.10;99.90
46029;DHT22;31763;48.180;7.904;2022-08-18T07:12:39;16.40;99.90
46029;DHT22;31763;48.180;7.904;2022-08-18T07:15:06;16.50;99.90
46029;DHT22;31763;48.180;7.904;2022-08-18T07:17:35;16.60;99.90
46029;DHT22;31763;48.180;7.904;2022-08-18T07:22:57;16.80;99.90
46029;DHT22;31763;48.180;7.904;2022-08-18T07:25:30;16.80;99.90
46029;DHT22;31763;48.180;7.904;2022-08-18T07:28:05;16.90;99.90
46029;DHT22;31763;48.180;7.904;2022-08-18T07:30:34;16.90;99.90
46029;DHT22;31763;48.180;7.904;2022-08-18T07:35:50;17.10;99.90
46029;DHT22;31763;48.180;7.904;2022-08-18T07:38:29;17.20;99.90
46029;DHT22;31763;48.180;7.904;2022-08-18T07:46:22;17.40;99.90
46029;DHT22;31763;48.180;7.904;2022-08-18T07:48:54;17.60;99.90
46029;DHT22;31763;48.180;7.904;2022-08-18T07:54:29;17.60;99.90
46029;DHT22;31763;48.180;7.904;2022-08-18T08:03:30;17.50;99.90
46029;DHT22;31763;48.180;7.904;2022-08-18T08:06:26;17.40;99.90
46029;DHT22;31763;48.180;7.904;2022-08-18T08:09:00;17.20;99.90
46029;DHT22;31763;48.180;7.904;2022-08-18T08:11:38;17.30;99.90
46029;DHT22;31763;48.180;7.904;2022-08-18T08:22:29;17.20;99.90
46029;DHT22;31763;48.180;7.904;2022-08-18T08:30:34;17.40;99.90
46029;DHT22;31763;48.180;7.904;2022-08-18T08:41:12;17.30;99.90
46029;DHT22;31763;48.180;7.904;2022-08-18T08:43:42;17.50;99.90
46029;DHT22;31763;48.180;7.904;2022-08-18T08:46:21;17.60;99.90
46029;DHT22;31763;48.180;7.904;2022-08-18T08:48:52;17.70;99.90
46029;DHT22;31763;48.180;7.904;2022-08-18T08:51:36;17.60;99.90
46029;DHT22;31763;48.180;7.904;2022-08-18T08:54:08;17.60;99.90
46029;DHT22;31763;48.180;7.904;2022-08-18T08:56:44;17.70;99.90
46029;DHT22;31763;48.180;7.904;2022-08-18T08:59:14;17.70;99.90
46029;DHT22;31763;48.180;7.904;2022-08-18T09:10:29;17.70;99.90
46029;DHT22;31763;48.180;7.904;2022-08-18T09:13:14;17.70;99.90
46029;DHT22;31763;48.180;7.904;2022-08-18T09:21:31;17.80;99.90
46029;DHT22;31763;48.180;7.904;2022-08-18T09:26:41;17.80;99.90
46029;DHT22;31763;48.180;7.904;2022-08-18T09:29:23;17.90;99.90
46029;DHT22;31763;48.180;7.904;2022-08-18T09:37:42;17.90;99.90
46029;DHT22;31763;48.180;7.904;2022-08-18T09:40:50;17.90;99.90
46029;DHT22;31763;48.180;7.904;2022-08-18T09:43:38;17.80;99.90
46029;DHT22;31763;48.180;7.904;2022-08-18T09:54:50;18.10;99.90
46029;DHT22;31763;48.180;7.904;2022-08-18T10:07:43;18.60;99.90
46029;DHT22;31763;48.180;7.904;2022-08-18T10:13:25;18.70;99.90
46029;DHT22;31763;48.180;7.904;2022-08-18T10:16:33;18.80;99.90
46029;DHT22;31763;48.180;7.904;2022-08-18T10:19:31;18.90;99.90
46029;DHT22;31763;48.180;7.904;2022-08-18T10:22:06;18.80;99.90
46029;DHT22;31763;48.180;7.904;2022-08-18T10:24:51;18.70;99.90
46029;DHT22;31763;48.180;7.904;2022-08-18T10:27:34;18.60;99.90
46029;DHT22;31763;48.180;7.904;2022-08-18T10:38:59;18.80;99.90
46029;DHT22;31763;48.180;7.904;2022-08-18T10:41:31;18.70;99.90
46029;DHT22;31763;48.180;7.904;2022-08-18T10:43:59;18.80;99.90
46029;DHT22;31763;48.180;7.904;2022-08-18T10:46:46;18.90;99.90
46029;DHT22;31763;48.180;7.904;2022-08-18T10:49:16;18.80;99.90
46029;DHT22;31763;48.180;7.904;2022-08-18T11:00:21;18.90;99.90
46029;DHT22;31763;48.180;7.904;2022-08-18T11:05:38;18.90;99.90
46029;DHT22;31763;48.180;7.904;2022-08-18T11:08:06;18.90;99.90
46029;DHT22;31763;48.180;7.904;2022-08-18T11:10:42;19.00;99.90
46029;DHT22;31763;48.180;7.904;2022-08-18T11:16:31;19.30;99.90
46029;DHT22;31763;48.180;7.904;2022-08-18T11:19:12;19.40;99.90
46029;DHT22;31763;48.180;7.904;2022-08-18T11:21:43;19.40;99.90
46029;DHT22;31763;48.180;7.904;2022-08-18T11:24:32;19.50;99.90
46029;DHT22;31763;48.180;7.904;2022-08-18T11:27:01;19.60;99.90
46029;DHT22;31763;48.180;7.904;2022-08-18T11:29:41;19.80;99.90
46029;DHT22;31763;48.180;7.904;2022-08-18T11:32:10;19.80;99.90
46029;DHT22;31763;48.180;7.904;2022-08-18T11:51:25;20.10;99.90
46029;DHT22;31763;48.180;7.904;2022-08-18T11:53:59;20.00;99.90
46029;DHT22;31763;48.180;7.904;2022-08-18T11:56:30;20.10;99.90
46029;DHT22;31763;48.180;7.904;2022-08-18T11:59:35;20.00;99.90
46029;DHT22;31763;48.180;7.904;2022-08-18T12:02:31;19.90;99.90
46029;DHT22;31763;48.180;7.904;2022-08-18T12:05:05;19.80;99.90
46029;DHT22;31763;48.180;7.904;2022-08-18T12:07:39;19.80;99.90
46029;DHT22;31763;48.180;7.904;2022-08-18T12:10:25;19.80;99.90
46029;DHT22;31763;48.180;7.904;2022-08-18T12:13:22;19.80;99.90
46029;DHT22;31763;48.180;7.904;2022-08-18T12:16:08;19.90;99.90
46029;DHT22;31763;48.180;7.904;2022-08-18T12:19:14;19.90;99.90
46029;DHT22;31763;48.180;7.904;2022-08-18T12:22:30;20.00;99.90
46029;DHT22;31763;48.180;7.904;2022-08-18T12:25:20;19.80;99.90
46029;DHT22;31763;48.180;7.904;2022-08-18T12:28:04;19.80;99.90
46029;DHT22;31763;48.180;7.904;2022-08-18T12:31:03;20.00;99.90
46029;DHT22;31763;48.180;7.904;2022-08-18T12:33:47;20.00;99.90
46029;DHT22;31763;48.180;7.904;2022-08-18T12:36:26;20.20;99.90
46029;DHT22;31763;48.180;7.904;2022-08-18T12:38:54;20.30;99.90
46029;DHT22;31763;48.180;7.904;2022-08-18T12:41:22;20.10;99.90
46029;DHT22;31763;48.180;7.904;2022-08-18T12:43:49;20.20;99.90
46029;DHT22;31763;48.180;7.904;2022-08-18T12:46:24;20.20;99.90
46029;DHT22;31763;48.180;7.904;2022-08-18T12:48:51;20.20;99.90
46029;DHT22;31763;48.180;7.904;2022-08-18T12:51:19;20.10;99.90
46029;DHT22;31763;48.180;7.904;2022-08-18T12:53:56;20.00;99.90
46029;DHT22;31763;48.180;7.904;2022-08-18T12:56:43;20.00;99.90
46029;DHT22;31763;48.180;7.904;2022-08-18T12:59:11;19.90;99.90
46029;DHT22;31763;48.180;7.904;2022-08-18T13:01:39;19.90;99.90
46029;DHT22;31763;48.180;7.904;2022-08-18T13:04:07;20.00;99.90
46029;DHT22;31763;48.180;7.904;2022-08-18T13:06:39;20.00;99.90
46029;DHT22;31763;48.180;7.904;2022-08-18T13:09:27;20.00;99.90
46029;DHT22;31763;48.180;7.904;2022-08-18T13:12:17;19.80;99.90
46029;DHT22;31763;48.180;7.904;2022-08-18T13:14:45;19.70;99.90
46029;DHT22;31763;48.180;7.904;2022-08-18T13:17:12;19.50;99.90
46029;DHT22;31763;48.180;7.904;2022-08-18T13:20:04;19.50;99.90
46029;DHT22;31763;48.180;7.904;2022-08-18T13:22:39;19.70;99.90
46029;DHT22;31763;48.180;7.904;2022-08-18T13:25:07;19.70;99.90
46029;DHT22;31763;48.180;7.904;2022-08-18T13:27:36;19.60;99.90
46029;DHT22;31763;48.180;7.904;2022-08-18T13:30:10;19.60;99.90
46029;DHT22;31763;48.180;7.904;2022-08-18T13:32:58;19.60;99.90
46029;DHT22;31763;48.180;7.904;2022-08-18T13:35:31;19.70;99.90
46029;DHT22;31763;48.180;7.904;2022-08-18T13:38:11;19.70;99.90
46029;DHT22;31763;48.180;7.904;2022-08-18T13:40:46;19.70;99.90
46029;DHT22;31763;48.180;7.904;2022-08-18T13:43:14;19.60;99.90
46029;DHT22;31763;48.180;7.904;2022-08-18T13:45:43;19.70;99.90
46029;DHT22;31763;48.180;7.904;2022-08-18T13:48:18;19.70;99.90
46029;DHT22;31763;48.180;7.904;2022-08-18T13:50:44;19.60;99.90
46029;DHT22;31763;48.180;7.904;2022-08-18T13:53:15;19.60;99.90
46029;DHT22;31763;48.180;7.904;2022-08-18T13:55:47;19.60;99.90
46029;DHT22;31763;48.180;7.904;2022-08-18T13:58:14;19.60;99.90
46029;DHT22;31763;48.180;7.904;2022-08-18T14:00:48;19.60;99.90
46029;DHT22;31763;48.180;7.904;2022-08-18T14:03:20;19.60;99.90
46029;DHT22;31763;48.180;7.904;2022-08-18T14:06:08;19.60;99.90
46029;DHT22;31763;48.180;7.904;2022-08-18T14:08:38;19.60;99.90
46029;DHT22;31763;48.180;7.904;2022-08-18T14:11:05;19.60;99.90
46029;DHT22;31763;48.180;7.904;2022-08-18T14:13:32;19.60;99.90
46029;DHT22;31763;48.180;7.904;2022-08-18T14:16:09;19.70;99.90
46029;DHT22;31763;48.180;7.904;2022-08-18T14:18:45;19.80;99.90
46029;DHT22;31763;48.180;7.904;2022-08-18T14:21:53;19.70;99.90
46029;DHT22;31763;48.180;7.904;2022-08-18T14:24:40;19.80;99.90
46029;DHT22;31763;48.180;7.904;2022-08-18T14:27:35;19.90;99.90
46029;DHT22;31763;48.180;7.904;2022-08-18T14:30:04;19.90;99.90
46029;DHT22;31763;48.180;7.904;2022-08-18T14:32:36;20.00;99.90
46029;DHT22;31763;48.180;7.904;2022-08-18T14:35:14;20.00;99.90
46029;DHT22;31763;48.180;7.904;2022-08-18T14:38:01;20.10;99.90
46029;DHT22;31763;48.180;7.904;2022-08-18T14:40:31;20.10;99.90
46029;DHT22;31763;48.180;7.904;2022-08-18T14:42:58;20.20;99.90
46029;DHT22;31763;48.180;7.904;2022-08-18T14:45:26;20.20;99.90
46029;DHT22;31763;48.180;7.904;2022-08-18T14:48:01;20.20;99.90
46029;DHT22;31763;48.180;7.904;2022-08-18T14:50:33;20.20;99.90
46029;DHT22;31763;48.180;7.904;2022-08-18T14:53:02;20.20;99.90
46029;DHT22;31763;48.180;7.904;2022-08-18T14:55:29;20.20;99.90
46029;DHT22;31763;48.180;7.904;2022-08-18T14:57:56;20.30;99.90
46029;DHT22;31763;48.180;7.904;2022-08-18T15:00:25;20.30;99.90
46029;DHT22;31763;48.180;7.904;2022-08-18T15:02:53;20.50;99.90
46029;DHT22;31763;48.180;7.904;2022-08-18T15:05:19;20.50;99.90
46029;DHT22;31763;48.180;7.904;2022-08-18T15:07:50;20.50;99.90
46029;DHT22;31763;48.180;7.904;2022-08-18T15:10:18;20.50;99.90
46029;DHT22;31763;48.180;7.904;2022-08-18T15:12:53;20.50;99.90
46029;DHT22;31763;48.180;7.904;2022-08-18T15:15:20;20.50;99.90
46029;DHT22;31763;48.180;7.904;2022-08-18T15:17:48;20.50;99.90
46029;DHT22;31763;48.180;7.904;2022-08-18T15:20:18;20.50;99.90
46029;DHT22;31763;48.180;7.904;2022-08-18T15:22:54;20.60;99.90
46029;DHT22;31763;48.180;7.904;2022-08-18T15:25:53;20.40;99.90
46029;DHT22;31763;48.180;7.904;2022-08-18T15:28:22;20.40;99.90
46029;DHT22;31763;48.180;7.904;2022-08-18T15:30:50;20.40;99.90
46029;DHT22;31763;48.180;7.904;2022-08-18T15:33:37;20.30;99.90
46029;DHT22;31763;48.180;7.904;2022-08-18T15:36:05;20.20;99.90
46029;DHT22;31763;48.180;7.904;2022-08-18T15:38:35;20.20;99.90
46029;DHT22;31763;48.180;7.904;2022-08-18T15:41:02;20.20;99.90
46029;DHT22;31763;48.180;7.904;2022-08-18T15:43:34;20.20;99.90
46029;DHT22;31763;48.180;7.904;2022-08-18T15:46:11;20.20;99.90
46029;DHT22;31763;48.180;7.904;2022-08-18T15:48:42;20.20;99.90
46029;DHT22;31763;48.180;7.904;2022-08-18T15:51:09;20.30;99.90
46029;DHT22;31763;48.180;7.904;2022-08-18T15:53:38;20.30;99.90
46029;DHT22;31763;48.180;7.904;2022-08-18T15:56:12;20.20;99.90
46029;DHT22;31763;48.180;7.904;2022-08-18T15:58:46;20.30;99.90
46029;DHT22;31763;48.180;7.904;2022-08-18T16:01:15;20.30;99.90
46029;DHT22;31763;48.180;7.904;2022-08-18T16:03:57;20.30;99.90
46029;DHT22;31763;48.180;7.904;2022-08-18T16:06:25;20.20;99.90
46029;DHT22;31763;48.180;7.904;2022-08-18T16:08:58;20.10;99.90
46029;DHT22;31763;48.180;7.904;2022-08-18T16:11:25;20.30;99.90
46029;DHT22;31763;48.180;7.904;2022-08-18T16:13:55;20.30;99.90
46029;DHT22;31763;48.180;7.904;2022-08-18T16:16:24;20.20;99.90
46029;DHT22;31763;48.180;7.904;2022-08-18T16:19:02;20.10;99.90
46029;DHT22;31763;48.180;7.904;2022-08-18T16:21:30;20.10;99.90
46029;DHT22;31763;48.180;7.904;2022-08-18T16:23:57;20.00;99.90
46029;DHT22;31763;48.180;7.904;2022-08-18T16:26:24;19.70;99.90
46029;DHT22;31763;48.180;7.904;2022-08-18T16:28:51;19.40;99.90
46029;DHT22;31763;48.180;7.904;2022-08-18T16:31:19;19.30;99.90
46029;DHT22;31763;48.180;7.904;2022-08-18T16:33:53;19.20;99.90
46029;DHT22;31763;48.180;7.904;2022-08-18T16:36:22;19.10;99.90
46029;DHT22;31763;48.180;7.904;2022-08-18T16:38:52;19.10;99.90
46029;DHT22;31763;48.180;7.904;2022-08-18T16:41:23;19.10;99.90
46029;DHT22;31763;48.180;7.904;2022-08-18T16:43:51;19.00;99.90
46029;DHT22;31763;48.180;7.904;2022-08-18T16:46:19;18.90;99.90
46029;DHT22;31763;48.180;7.904;2022-08-18T16:48:49;18.80;99.90
46029;DHT22;31763;48.180;7.904;2022-08-18T16:51:17;18.80;99.90
46029;DHT22;31763;48.180;7.904;2022-08-18T16:53:47;18.80;99.90
46029;DHT22;31763;48.180;7.904;2022-08-18T16:56:21;18.90;99.90
46029;DHT22;31763;48.180;7.904;2022-08-18T16:58:50;18.90;99.90
46029;DHT22;31763;48.180;7.904;2022-08-18T17:01:36;18.90;99.90
46029;DHT22;31763;48.180;7.904;2022-08-18T17:04:23;18.90;99.90
46029;DHT22;31763;48.180;7.904;2022-08-18T17:06:53;18.90;99.90
46029;DHT22;31763;48.180;7.904;2022-08-18T17:09:20;19.00;99.90
46029;DHT22;31763;48.180;7.904;2022-08-18T17:11:47;19.00;99.90
46029;DHT22;31763;48.180;7.904;2022-08-18T17:14:18;18.80;99.90
46029;DHT22;31763;48.180;7.904;2022-08-18T17:16:52;18.90;99.90
46029;DHT22;31763;48.180;7.904;2022-08-18T17:19:21;18.90;99.90
46029;DHT22;31763;48.180;7.904;2022-08-18T17:21:49;18.80;99.90
46029;DHT22;31763;48.180;7.904;2022-08-18T17:24:15;18.80;99.90
46029;DHT22;31763;48.180;7.904;2022-08-18T17:26:57;18.80;99.90
46029;DHT22;31763;48.180;7.904;2022-08-18T17:31:57;18.80;99.90
46029;DHT22;31763;48.180;7.904;2022-08-18T17:34:35;18.80;99.90
46029;DHT22;31763;48.180;7.904;2022-08-18T17:37:06;18.80;99.90
46029;DHT22;31763;48.180;7.904;2022-08-18T17:39:36;18.80;99.90
46029;DHT22;31763;48.180;7.904;2022-08-18T17:42:06;18.80;99.90
46029;DHT22;31763;48.180;7.904;2022-08-18T17:44:51;18.80;99.90
46029;DHT22;31763;48.180;7.904;2022-08-18T17:47:26;18.60;99.90
46029;DHT22;31763;48.180;7.904;2022-08-18T17:49:55;18.60;99.90
46029;DHT22;31763;48.180;7.904;2022-08-18T17:53:00;18.70;99.90
46029;DHT22;31763;48.180;7.904;2022-08-18T17:55:53;18.70;99.90
46029;DHT22;31763;48.180;7.904;2022-08-18T17:58:27;18.70;99.90
46029;DHT22;31763;48.180;7.904;2022-08-18T18:01:00;18.70;99.90
46029;DHT22;31763;48.180;7.904;2022-08-18T18:03:28;18.70;99.90
46029;DHT22;31763;48.180;7.904;2022-08-18T18:06:05;18.70;99.90
46029;DHT22;31763;48.180;7.904;2022-08-18T18:08:54;18.70;99.90
46029;DHT22;31763;48.180;7.904;2022-08-18T18:11:29;18.60;99.90
46029;DHT22;31763;48.180;7.904;2022-08-18T18:13:58;18.60;99.90
46029;DHT22;31763;48.180;7.904;2022-08-18T18:16:31;18.60;99.90
46029;DHT22;31763;48.180;7.904;2022-08-18T18:19:04;18.60;99.90
46029;DHT22;31763;48.180;7.904;2022-08-18T18:21:33;18.60;99.90
46029;DHT22;31763;48.180;7.904;2022-08-18T18:24:22;18.60;99.90
46029;DHT22;31763;48.180;7.904;2022-08-18T18:26:55;18.60;99.90
46029;DHT22;31763;48.180;7.904;2022-08-18T18:29:27;18.60;99.90
46029;DHT22;31763;48.180;7.904;2022-08-18T18:35:27;18.70;99.90
46029;DHT22;31763;48.180;7.904;2022-08-18T18:38:43;18.70;99.90
46029;DHT22;31763;48.180;7.904;2022-08-18T18:44:59;18.40;99.90
46029;DHT22;31763;48.180;7.904;2022-08-18T18:51:57;18.20;99.90
46029;DHT22;31763;48.180;7.904;2022-08-18T18:56:52;18.20;99.90
46029;DHT22;31763;48.180;7.904;2022-08-18T18:59:37;18.20;99.90
46029;DHT22;31763;48.180;7.904;2022-08-18T19:02:44;18.10;99.90
46029;DHT22;31763;48.180;7.904;2022-08-18T19:05:22;18.10;99.90
46029;DHT22;31763;48.180;7.904;2022-08-18T19:11:05;18.30;99.90
46029;DHT22;31763;48.180;7.904;2022-08-18T19:13:52;18.40;99.90
46029;DHT22;31763;48.180;7.904;2022-08-18T19:16:36;18.40;99.90
46029;DHT22;31763;48.180;7.904;2022-08-18T19:19:19;18.50;99.90
46029;DHT22;31763;48.180;7.904;2022-08-18T19:22:07;18.60;99.90
46029;DHT22;31763;48.180;7.904;2022-08-18T19:25:05;18.40;99.90
46029;DHT22;31763;48.180;7.904;2022-08-18T19:27:36;18.40;99.90
46029;DHT22;31763;48.180;7.904;2022-08-18T19:30:12;18.30;99.90
46029;DHT22;31763;48.180;7.904;2022-08-18T19:32:41;18.40;99.90
46029;DHT22;31763;48.180;7.904;2022-08-18T19:38:21;18.20;99.90
46029;DHT22;31763;48.180;7.904;2022-08-18T19:40:53;18.10;99.90
46029;DHT22;31763;48.180;7.904;2022-08-18T19:44:05;18.30;99.90
46029;DHT22;31763;48.180;7.904;2022-08-18T19:46:33;18.30;99.90
46029;DHT22;31763;48.180;7.904;2022-08-18T19:51:58;18.00;99.90
46029;DHT22;31763;48.180;7.904;2022-08-18T19:54:39;17.90;99.90
46029;DHT22;31763;48.180;7.904;2022-08-18T19:57:13;18.10;99.90
46029;DHT22;31763;48.180;7.904;2022-08-18T20:05:20;18.10;99.90
46029;DHT22;31763;48.180;7.904;2022-08-18T20:14:12;18.10;99.90
46029;DHT22;31763;48.180;7.904;2022-08-18T20:16:41;18.20;99.90
46029;DHT22;31763;48.180;7.904;2022-08-18T20:22:07;18.00;99.90
46029;DHT22;31763;48.180;7.904;2022-08-18T20:27:32;18.20;99.90
46029;DHT22;31763;48.180;7.904;2022-08-18T20:38:40;18.00;99.90
46029;DHT22;31763;48.180;7.904;2022-08-18T20:41:25;18.10;99.90
46029;DHT22;31763;48.180;7.904;2022-08-18T20:49:24;18.00;99.90
46029;DHT22;31763;48.180;7.904;2022-08-18T20:52:02;18.00;99.90
46029;DHT22;31763;48.180;7.904;2022-08-18T20:54:53;18.00;99.90
46029;DHT22;31763;48.180;7.904;2022-08-18T20:57:37;18.00;99.90
46029;DHT22;31763;48.180;7.904;2022-08-18T21:00:12;18.00;99.90
46029;DHT22;31763;48.180;7.904;2022-08-18T21:02:56;17.90;99.90
46029;DHT22;31763;48.180;7.904;2022-08-18T21:05:26;17.90;99.90
46029;DHT22;31763;48.180;7.904;2022-08-18T21:10:31;18.00;99.90
46029;DHT22;31763;48.180;7.904;2022-08-18T21:13:00;18.00;99.90
46029;DHT22;31763;48.180;7.904;2022-08-18T21:15:34;17.90;99.90
46029;DHT22;31763;48.180;7.904;2022-08-18T21:18:18;18.00;99.90
46029;DHT22;31763;48.180;7.904;2022-08-18T21:20:52;17.90;99.90
46029;DHT22;31763;48.180;7.904;2022-08-18T21:23:35;17.90;99.90
46029;DHT22;31763;48.180;7.904;2022-08-18T21:26:23;17.80;99.90
46029;DHT22;31763;48.180;7.904;2022-08-18T21:29:21;17.80;99.90
46029;DHT22;31763;48.180;7.904;2022-08-18T21:32:27;17.80;99.90
46029;DHT22;31763;48.180;7.904;2022-08-18T21:35:41;17.70;99.90
46029;DHT22;31763;48.180;7.904;2022-08-18T21:38:46;17.70;99.90
46029;DHT22;31763;48.180;7.904;2022-08-18T21:41:41;17.70;99.90
46029;DHT22;31763;48.180;7.904;2022-08-18T21:44:47;17.80;99.90
46029;DHT22;31763;48.180;7.904;2022-08-18T21:47:31;17.90;99.90
46029;DHT22;31763;48.180;7.904;2022-08-18T21:50:16;17.90;99.90
46029;DHT22;31763;48.180;7.904;2022-08-18T21:52:59;17.90;99.90
46029;DHT22;31763;48.180;7.904;2022-08-18T21:55:32;17.90;99.90
46029;DHT22;31763;48.180;7.904;2022-08-18T22:01:19;17.90;99.90
46029;DHT22;31763;48.180;7.904;2022-08-18T22:06:51;17.90;99.90
46029;DHT22;31763;48.180;7.904;2022-08-18T22:09:24;17.90;99.90
46029;DHT22;31763;48.180;7.904;2022-08-18T22:12:28;18.10;99.90
46029;DHT22;31763;48.180;7.904;2022-08-18T22:18:04;18.20;99.90
46029;DHT22;31763;48.180;7.904;2022-08-18T22:21:54;18.10;99.90
46029;DHT22;31763;48.180;7.904;2022-08-18T22:24:06;18.30;99.90
46029;DHT22;31763;48.180;7.904;2022-08-18T22:27:01;18.30;99.90
46029;DHT22;31763;48.180;7.904;2022-08-18T22:30:01;18.30;99.90
46029;DHT22;31763;48.180;7.904;2022-08-18T22:32:31;18.40;99.90
46029;DHT22;31763;48.180;7.904;2022-08-18T22:35:01;18.40;99.90
46029;DHT22;31763;48.180;7.904;2022-08-18T22:37:29;18.30;99.90
46029;DHT22;31763;48.180;7.904;2022-08-18T22:42:27;18.20;99.90
46029;DHT22;31763;48.180;7.904;2022-08-18T22:44:58;18.20;99.90
46029;DHT22;31763;48.180;7.904;2022-08-18T22:47:30;18.30;99.90
46029;DHT22;31763;48.180;7.904;2022-08-18T22:50:11;18.30;99.90
46029;DHT22;31763;48.180;7.904;2022-08-18T22:52:39;18.30;99.90
46029;DHT22;31763;48.180;7.904;2022-08-18T22:55:09;18.40;99.90
46029;DHT22;31763;48.180;7.904;2022-08-18T22:57:37;18.40;99.90
46029;DHT22;31763;48.180;7.904;2022-08-18T23:00:17;18.30;99.90
46029;DHT22;31763;48.180;7.904;2022-08-18T23:02:48;18.30;99.90
46029;DHT22;31763;48.180;7.904;2022-08-18T23:05:15;18.20;99.90
46029;DHT22;31763;48.180;7.904;2022-08-18T23:07:41;18.20;99.90
46029;DHT22;31763;48.180;7.904;2022-08-18T23:10:08;18.10;99.90
46029;DHT22;31763;48.180;7.904;2022-08-18T23:12:43;18.00;99.90
46029;DHT22;31763;48.180;7.904;2022-08-18T23:15:12;17.90;99.90
46029;DHT22;31763;48.180;7.904;2022-08-18T23:17:40;17.90;99.90
46029;DHT22;31763;48.180;7.904;2022-08-18T23:20:09;17.80;99.90
46029;DHT22;31763;48.180;7.904;2022-08-18T23:22:43;17.70;99.90
46029;DHT22;31763;48.180;7.904;2022-08-18T23:25:10;17.70;99.90
46029;DHT22;31763;48.180;7.904;2022-08-18T23:27:38;17.70;99.90
46029;DHT22;31763;48.180;7.904;2022-08-18T23:30:06;17.80;99.90
46029;DHT22;31763;48.180;7.904;2022-08-18T23:32:34;17.80;99.90
46029;DHT22;31763;48.180;7.904;2022-08-18T23:35:00;17.90;99.90
46029;DHT22;31763;48.180;7.904;2022-08-18T23:37:27;17.90;99.90
46029;DHT22;31763;48.180;7.904;2022-08-18T23:39:56;18.00;99.90
46029;DHT22;31763;48.180;7.904;2022-08-18T23:42:23;17.80;99.90
46029;DHT22;31763;48.180;7.904;2022-08-18T23:44:50;17.70;99.90
46029;DHT22;31763;48.180;7.904;2022-08-18T23:47:17;17.80;99.90
46029;DHT22;31763;48.180;7.904;2022-08-18T23:49:46;17.80;99.90
46029;DHT22;31763;48.180;7.904;2022-08-18T23:52:13;17.80;99.90
46029;DHT22;31763;48.180;7.904;2022-08-18T23:54:40;17.70;99.90
46029;DHT22;31763;48.180;7.904;2022-08-18T23:57:07;17.70;99.90
46029;DHT22;31763;48.180;7.904;2022-08-18T23:59:33;17.70;99.90
